sensor_id;sensor_type;location;lat;lon;timestamp;P1;durP1;ratioP1;P2;durP2;ratioP2
75044;SDS011;63614;56.026;35.960;2023-03-14T00:02:25;8.40;;;2.75;;
75044;SDS011;63614;56.026;35.960;2023-03-14T00:04:55;6.18;;;2.83;;
75044;SDS011;63614;56.026;35.960;2023-03-14T00:07:21;5.72;;;2.78;;
75044;SDS011;63614;56.026;35.960;2023-03-14T00:09:50;6.45;;;2.78;;
75044;SDS011;63614;56.026;35.960;2023-03-14T00:12:16;8.50;;;2.72;;
75044;SDS011;63614;56.026;35.960;2023-03-14T00:14:42;6.43;;;3.15;;
75044;SDS011;63614;56.026;35.960;2023-03-14T00:17:08;7.75;;;2.97;;
75044;SDS011;63614;56.026;35.960;2023-03-14T00:19:34;9.25;;;3.38;;
75044;SDS011;63614;56.026;35.960;2023-03-14T00:22:00;5.50;;;2.80;;
75044;SDS011;63614;56.026;35.960;2023-03-14T00:24:26;10.40;;;2.88;;
75044;SDS011;63614;56.026;35.960;2023-03-14T00:26:52;4.47;;;3.00;;
75044;SDS011;63614;56.026;35.960;2023-03-14T00:29:17;7.60;;;3.45;;
75044;SDS011;63614;56.026;35.960;2023-03-14T00:31:44;11.18;;;3.50;;
75044;SDS011;63614;56.026;35.960;2023-03-14T00:34:10;7.53;;;3.53;;
75044;SDS011;63614;56.026;35.960;2023-03-14T00:36:36;7.57;;;3.33;;
75044;SDS011;63614;56.026;35.960;2023-03-14T00:39:01;8.98;;;3.40;;
75044;SDS011;63614;56.026;35.960;2023-03-14T00:41:30;8.35;;;3.05;;
75044;SDS011;63614;56.026;35.960;2023-03-14T00:43:56;9.30;;;3.45;;
75044;SDS011;63614;56.026;35.960;2023-03-14T00:46:22;9.38;;;3.80;;
75044;SDS011;63614;56.026;35.960;2023-03-14T00:48:47;7.50;;;3.17;;
75044;SDS011;63614;56.026;35.960;2023-03-14T00:51:13;8.63;;;3.60;;
75044;SDS011;63614;56.026;35.960;2023-03-14T00:53:42;8.23;;;3.22;;
75044;SDS011;63614;56.026;35.960;2023-03-14T00:56:10;8.85;;;3.80;;
75044;SDS011;63614;56.026;35.960;2023-03-14T00:58:37;8.05;;;3.72;;
75044;SDS011;63614;56.026;35.960;2023-03-14T01:01:10;9.07;;;3.72;;
75044;SDS011;63614;56.026;35.960;2023-03-14T01:03:39;13.80;;;3.92;;
75044;SDS011;63614;56.026;35.960;2023-03-14T01:06:12;9.80;;;3.67;;
75044;SDS011;63614;56.026;35.960;2023-03-14T01:08:43;11.02;;;3.45;;
75044;SDS011;63614;56.026;35.960;2023-03-14T01:11:15;7.30;;;3.87;;
75044;SDS011;63614;56.026;35.960;2023-03-14T01:13:42;9.50;;;3.95;;
75044;SDS011;63614;56.026;35.960;2023-03-14T01:16:09;8.23;;;3.95;;
75044;SDS011;63614;56.026;35.960;2023-03-14T01:18:37;9.68;;;3.30;;
75044;SDS011;63614;56.026;35.960;2023-03-14T01:21:08;7.00;;;3.75;;
75044;SDS011;63614;56.026;35.960;2023-03-14T01:23:36;8.00;;;3.30;;
75044;SDS011;63614;56.026;35.960;2023-03-14T01:26:01;5.63;;;2.97;;
75044;SDS011;63614;56.026;35.960;2023-03-14T01:28:27;12.13;;;4.97;;
75044;SDS011;63614;56.026;35.960;2023-03-14T01:30:53;7.90;;;4.35;;
75044;SDS011;63614;56.026;35.960;2023-03-14T01:33:19;7.03;;;3.22;;
75044;SDS011;63614;56.026;35.960;2023-03-14T01:35:44;8.82;;;4.28;;
75044;SDS011;63614;56.026;35.960;2023-03-14T01:38:11;8.05;;;4.20;;
75044;SDS011;63614;56.026;35.960;2023-03-14T01:40:44;6.68;;;3.97;;
75044;SDS011;63614;56.026;35.960;2023-03-14T01:43:17;9.70;;;4.10;;
75044;SDS011;63614;56.026;35.960;2023-03-14T01:51:16;11.68;;;4.40;;
75044;SDS011;63614;56.026;35.960;2023-03-14T01:53:47;7.78;;;3.47;;
75044;SDS011;63614;56.026;35.960;2023-03-14T01:56:15;9.27;;;5.00;;
75044;SDS011;63614;56.026;35.960;2023-03-14T01:58:44;6.88;;;3.45;;
75044;SDS011;63614;56.026;35.960;2023-03-14T02:04:07;9.50;;;5.18;;
75044;SDS011;63614;56.026;35.960;2023-03-14T02:06:40;9.43;;;4.93;;
75044;SDS011;63614;56.026;35.960;2023-03-14T02:09:12;7.82;;;4.25;;
75044;SDS011;63614;56.026;35.960;2023-03-14T02:11:38;10.82;;;5.55;;
75044;SDS011;63614;56.026;35.960;2023-03-14T02:14:09;7.63;;;4.30;;
75044;SDS011;63614;56.026;35.960;2023-03-14T02:17:08;9.82;;;4.85;;
75044;SDS011;63614;56.026;35.960;2023-03-14T02:20:22;8.55;;;4.50;;
75044;SDS011;63614;56.026;35.960;2023-03-14T02:22:55;9.40;;;4.60;;
75044;SDS011;63614;56.026;35.960;2023-03-14T02:28:00;8.00;;;4.45;;
75044;SDS011;63614;56.026;35.960;2023-03-14T02:30:28;11.50;;;5.63;;
75044;SDS011;63614;56.026;35.960;2023-03-14T02:33:06;7.63;;;4.53;;
75044;SDS011;63614;56.026;35.960;2023-03-14T02:35:36;9.32;;;4.30;;
75044;SDS011;63614;56.026;35.960;2023-03-14T02:40:43;11.55;;;5.25;;
75044;SDS011;63614;56.026;35.960;2023-03-14T02:43:10;12.43;;;4.63;;
75044;SDS011;63614;56.026;35.960;2023-03-14T02:48:07;6.88;;;4.45;;
75044;SDS011;63614;56.026;35.960;2023-03-14T02:50:38;8.85;;;4.70;;
75044;SDS011;63614;56.026;35.960;2023-03-14T02:53:05;8.20;;;4.95;;
75044;SDS011;63614;56.026;35.960;2023-03-14T02:55:31;12.55;;;4.75;;
75044;SDS011;63614;56.026;35.960;2023-03-14T02:58:02;8.25;;;4.70;;
75044;SDS011;63614;56.026;35.960;2023-03-14T03:00:28;10.40;;;5.55;;
75044;SDS011;63614;56.026;35.960;2023-03-14T03:02:56;12.35;;;5.80;;
75044;SDS011;63614;56.026;35.960;2023-03-14T03:05:22;9.48;;;5.32;;
75044;SDS011;63614;56.026;35.960;2023-03-14T03:07:47;14.30;;;5.47;;
75044;SDS011;63614;56.026;35.960;2023-03-14T03:10:13;10.45;;;5.97;;
75044;SDS011;63614;56.026;35.960;2023-03-14T03:12:39;10.07;;;5.18;;
75044;SDS011;63614;56.026;35.960;2023-03-14T03:15:05;10.32;;;4.90;;
75044;SDS011;63614;56.026;35.960;2023-03-14T03:17:35;10.52;;;6.00;;
75044;SDS011;63614;56.026;35.960;2023-03-14T03:20:00;10.15;;;5.25;;
75044;SDS011;63614;56.026;35.960;2023-03-14T03:22:26;9.25;;;6.50;;
75044;SDS011;63614;56.026;35.960;2023-03-14T03:24:52;9.20;;;5.00;;
75044;SDS011;63614;56.026;35.960;2023-03-14T03:27:18;9.18;;;6.05;;
75044;SDS011;63614;56.026;35.960;2023-03-14T03:29:43;6.63;;;4.63;;
75044;SDS011;63614;56.026;35.960;2023-03-14T03:32:10;10.93;;;6.15;;
75044;SDS011;63614;56.026;35.960;2023-03-14T03:34:35;7.95;;;5.35;;
75044;SDS011;63614;56.026;35.960;2023-03-14T03:37:01;10.00;;;5.90;;
75044;SDS011;63614;56.026;35.960;2023-03-14T03:39:30;8.90;;;5.57;;
75044;SDS011;63614;56.026;35.960;2023-03-14T03:41:56;8.02;;;5.53;;
75044;SDS011;63614;56.026;35.960;2023-03-14T03:44:22;10.38;;;6.63;;
75044;SDS011;63614;56.026;35.960;2023-03-14T03:46:47;10.25;;;6.35;;
75044;SDS011;63614;56.026;35.960;2023-03-14T03:49:13;8.43;;;5.35;;
75044;SDS011;63614;56.026;35.960;2023-03-14T03:51:39;8.23;;;6.07;;
75044;SDS011;63614;56.026;35.960;2023-03-14T03:54:05;12.80;;;7.43;;
75044;SDS011;63614;56.026;35.960;2023-03-14T03:56:32;11.73;;;7.13;;
75044;SDS011;63614;56.026;35.960;2023-03-14T03:58:59;9.43;;;6.03;;
75044;SDS011;63614;56.026;35.960;2023-03-14T04:01:24;10.63;;;6.82;;
75044;SDS011;63614;56.026;35.960;2023-03-14T04:03:53;9.15;;;5.97;;
75044;SDS011;63614;56.026;35.960;2023-03-14T04:06:19;10.00;;;6.10;;
75044;SDS011;63614;56.026;35.960;2023-03-14T04:08:47;9.65;;;6.20;;
75044;SDS011;63614;56.026;35.960;2023-03-14T04:11:26;10.02;;;5.93;;
75044;SDS011;63614;56.026;35.960;2023-03-14T04:14:07;10.05;;;6.28;;
75044;SDS011;63614;56.026;35.960;2023-03-14T04:16:33;10.57;;;5.82;;
75044;SDS011;63614;56.026;35.960;2023-03-14T04:19:04;10.55;;;6.00;;
75044;SDS011;63614;56.026;35.960;2023-03-14T04:21:32;9.10;;;6.10;;
75044;SDS011;63614;56.026;35.960;2023-03-14T04:23:58;9.68;;;6.22;;
75044;SDS011;63614;56.026;35.960;2023-03-14T04:26:29;10.05;;;5.63;;
75044;SDS011;63614;56.026;35.960;2023-03-14T04:28:55;11.60;;;7.68;;
75044;SDS011;63614;56.026;35.960;2023-03-14T04:31:21;11.38;;;6.13;;
75044;SDS011;63614;56.026;35.960;2023-03-14T04:33:48;12.50;;;7.43;;
75044;SDS011;63614;56.026;35.960;2023-03-14T04:36:19;8.98;;;5.45;;
75044;SDS011;63614;56.026;35.960;2023-03-14T04:38:45;12.40;;;6.30;;
75044;SDS011;63614;56.026;35.960;2023-03-14T04:41:12;9.38;;;5.40;;
75044;SDS011;63614;56.026;35.960;2023-03-14T04:43:39;11.93;;;7.18;;
75044;SDS011;63614;56.026;35.960;2023-03-14T04:46:07;11.23;;;6.47;;
75044;SDS011;63614;56.026;35.960;2023-03-14T04:48:33;11.30;;;6.32;;
75044;SDS011;63614;56.026;35.960;2023-03-14T04:50:59;9.55;;;5.63;;
75044;SDS011;63614;56.026;35.960;2023-03-14T04:53:29;8.80;;;5.55;;
75044;SDS011;63614;56.026;35.960;2023-03-14T04:55:56;13.10;;;6.22;;
75044;SDS011;63614;56.026;35.960;2023-03-14T04:58:25;12.90;;;6.38;;
75044;SDS011;63614;56.026;35.960;2023-03-14T05:00:53;11.98;;;6.07;;
75044;SDS011;63614;56.026;35.960;2023-03-14T05:03:48;12.10;;;6.72;;
75044;SDS011;63614;56.026;35.960;2023-03-14T05:06:14;9.85;;;6.78;;
75044;SDS011;63614;56.026;35.960;2023-03-14T05:08:58;10.30;;;6.10;;
75044;SDS011;63614;56.026;35.960;2023-03-14T05:11:24;13.60;;;7.47;;
75044;SDS011;63614;56.026;35.960;2023-03-14T05:14:10;12.10;;;6.55;;
75044;SDS011;63614;56.026;35.960;2023-03-14T05:16:54;15.50;;;8.73;;
75044;SDS011;63614;56.026;35.960;2023-03-14T05:19:35;12.10;;;6.60;;
75044;SDS011;63614;56.026;35.960;2023-03-14T05:22:12;11.88;;;7.70;;
75044;SDS011;63614;56.026;35.960;2023-03-14T05:24:56;13.18;;;8.30;;
75044;SDS011;63614;56.026;35.960;2023-03-14T05:27:49;12.05;;;7.68;;
75044;SDS011;63614;56.026;35.960;2023-03-14T05:30:31;13.25;;;7.22;;
75044;SDS011;63614;56.026;35.960;2023-03-14T05:33:21;13.45;;;7.85;;
75044;SDS011;63614;56.026;35.960;2023-03-14T05:36:02;16.10;;;6.95;;
75044;SDS011;63614;56.026;35.960;2023-03-14T05:38:54;14.88;;;8.07;;
75044;SDS011;63614;56.026;35.960;2023-03-14T05:41:55;13.60;;;7.85;;
75044;SDS011;63614;56.026;35.960;2023-03-14T05:44:42;16.30;;;7.15;;
75044;SDS011;63614;56.026;35.960;2023-03-14T05:47:33;17.15;;;7.63;;
75044;SDS011;63614;56.026;35.960;2023-03-14T05:50:34;14.65;;;7.80;;
75044;SDS011;63614;56.026;35.960;2023-03-14T05:53:23;12.23;;;7.00;;
75044;SDS011;63614;56.026;35.960;2023-03-14T05:56:09;12.00;;;7.25;;
75044;SDS011;63614;56.026;35.960;2023-03-14T05:58:57;11.45;;;7.28;;
75044;SDS011;63614;56.026;35.960;2023-03-14T06:01:36;13.80;;;7.47;;
75044;SDS011;63614;56.026;35.960;2023-03-14T06:04:11;13.07;;;5.90;;
75044;SDS011;63614;56.026;35.960;2023-03-14T06:06:38;8.98;;;5.63;;
75044;SDS011;63614;56.026;35.960;2023-03-14T06:09:05;9.70;;;6.13;;
75044;SDS011;63614;56.026;35.960;2023-03-14T06:11:34;12.18;;;7.55;;
75044;SDS011;63614;56.026;35.960;2023-03-14T06:14:00;13.88;;;6.80;;
75044;SDS011;63614;56.026;35.960;2023-03-14T06:16:25;11.07;;;6.35;;
75044;SDS011;63614;56.026;35.960;2023-03-14T06:18:53;10.20;;;6.05;;
75044;SDS011;63614;56.026;35.960;2023-03-14T06:21:20;9.70;;;6.05;;
75044;SDS011;63614;56.026;35.960;2023-03-14T06:23:47;10.80;;;6.55;;
75044;SDS011;63614;56.026;35.960;2023-03-14T06:26:13;9.57;;;5.50;;
75044;SDS011;63614;56.026;35.960;2023-03-14T06:28:39;12.40;;;7.22;;
75044;SDS011;63614;56.026;35.960;2023-03-14T06:31:05;15.20;;;7.60;;
75044;SDS011;63614;56.026;35.960;2023-03-14T06:33:38;11.63;;;6.47;;
75044;SDS011;63614;56.026;35.960;2023-03-14T06:36:06;12.15;;;6.38;;
75044;SDS011;63614;56.026;35.960;2023-03-14T06:38:33;12.90;;;6.55;;
75044;SDS011;63614;56.026;35.960;2023-03-14T06:41:05;13.65;;;6.30;;
75044;SDS011;63614;56.026;35.960;2023-03-14T06:43:43;11.13;;;6.03;;
75044;SDS011;63614;56.026;35.960;2023-03-14T06:46:09;14.23;;;6.60;;
75044;SDS011;63614;56.026;35.960;2023-03-14T06:48:37;11.63;;;6.43;;
75044;SDS011;63614;56.026;35.960;2023-03-14T06:51:03;13.30;;;6.60;;
75044;SDS011;63614;56.026;35.960;2023-03-14T06:53:29;13.77;;;6.20;;
75044;SDS011;63614;56.026;35.960;2023-03-14T06:55:58;14.45;;;6.47;;
75044;SDS011;63614;56.026;35.960;2023-03-14T07:00:52;10.32;;;6.22;;
75044;SDS011;63614;56.026;35.960;2023-03-14T07:03:23;11.70;;;5.85;;
75044;SDS011;63614;56.026;35.960;2023-03-14T07:05:51;13.13;;;6.20;;
75044;SDS011;63614;56.026;35.960;2023-03-14T07:08:18;8.80;;;5.00;;
75044;SDS011;63614;56.026;35.960;2023-03-14T07:10:44;10.02;;;5.82;;
75044;SDS011;63614;56.026;35.960;2023-03-14T07:13:10;11.45;;;5.40;;
75044;SDS011;63614;56.026;35.960;2023-03-14T07:15:47;11.63;;;5.63;;
75044;SDS011;63614;56.026;35.960;2023-03-14T07:18:13;14.20;;;6.15;;
75044;SDS011;63614;56.026;35.960;2023-03-14T07:20:38;11.00;;;4.90;;
75044;SDS011;63614;56.026;35.960;2023-03-14T07:23:06;9.75;;;5.88;;
75044;SDS011;63614;56.026;35.960;2023-03-14T07:25:39;12.77;;;6.53;;
75044;SDS011;63614;56.026;35.960;2023-03-14T07:28:05;12.05;;;5.10;;
75044;SDS011;63614;56.026;35.960;2023-03-14T07:30:31;11.68;;;6.20;;
75044;SDS011;63614;56.026;35.960;2023-03-14T07:32:59;11.75;;;6.22;;
75044;SDS011;63614;56.026;35.960;2023-03-14T07:35:25;9.63;;;5.15;;
75044;SDS011;63614;56.026;35.960;2023-03-14T07:37:51;16.42;;;6.68;;
75044;SDS011;63614;56.026;35.960;2023-03-14T07:40:23;14.25;;;5.88;;
75044;SDS011;63614;56.026;35.960;2023-03-14T07:42:49;8.05;;;5.00;;
75044;SDS011;63614;56.026;35.960;2023-03-14T07:45:24;9.95;;;4.07;;
75044;SDS011;63614;56.026;35.960;2023-03-14T07:47:50;12.30;;;6.15;;
75044;SDS011;63614;56.026;35.960;2023-03-14T07:50:16;17.30;;;6.55;;
75044;SDS011;63614;56.026;35.960;2023-03-14T07:52:42;11.40;;;5.55;;
75044;SDS011;63614;56.026;35.960;2023-03-14T07:55:07;17.27;;;5.72;;
75044;SDS011;63614;56.026;35.960;2023-03-14T07:57:33;9.45;;;5.15;;
75044;SDS011;63614;56.026;35.960;2023-03-14T07:59:59;9.57;;;4.65;;
75044;SDS011;63614;56.026;35.960;2023-03-14T08:02:25;12.93;;;5.32;;
75044;SDS011;63614;56.026;35.960;2023-03-14T08:04:50;10.50;;;4.68;;
75044;SDS011;63614;56.026;35.960;2023-03-14T08:07:16;14.63;;;5.13;;
75044;SDS011;63614;56.026;35.960;2023-03-14T08:09:42;11.23;;;4.88;;
75044;SDS011;63614;56.026;35.960;2023-03-14T08:12:08;31.00;;;5.95;;
75044;SDS011;63614;56.026;35.960;2023-03-14T08:14:33;13.38;;;5.22;;
75044;SDS011;63614;56.026;35.960;2023-03-14T08:16:59;9.60;;;5.43;;
75044;SDS011;63614;56.026;35.960;2023-03-14T08:19:25;13.55;;;5.57;;
75044;SDS011;63614;56.026;35.960;2023-03-14T08:21:51;10.32;;;4.82;;
75044;SDS011;63614;56.026;35.960;2023-03-14T08:24:17;11.48;;;5.50;;
75044;SDS011;63614;56.026;35.960;2023-03-14T08:26:43;15.40;;;5.13;;
75044;SDS011;63614;56.026;35.960;2023-03-14T08:29:09;6.75;;;3.92;;
75044;SDS011;63614;56.026;35.960;2023-03-14T08:31:35;10.43;;;4.95;;
75044;SDS011;63614;56.026;35.960;2023-03-14T08:34:01;11.95;;;4.90;;
75044;SDS011;63614;56.026;35.960;2023-03-14T08:36:27;11.38;;;4.93;;
75044;SDS011;63614;56.026;35.960;2023-03-14T08:38:53;10.27;;;5.22;;
75044;SDS011;63614;56.026;35.960;2023-03-14T08:41:20;11.83;;;4.70;;
75044;SDS011;63614;56.026;35.960;2023-03-14T08:43:46;10.48;;;4.32;;
75044;SDS011;63614;56.026;35.960;2023-03-14T08:46:11;10.45;;;4.50;;
75044;SDS011;63614;56.026;35.960;2023-03-14T08:48:37;20.90;;;5.57;;
75044;SDS011;63614;56.026;35.960;2023-03-14T08:51:07;11.10;;;4.93;;
75044;SDS011;63614;56.026;35.960;2023-03-14T08:53:34;10.85;;;4.43;;
75044;SDS011;63614;56.026;35.960;2023-03-14T08:55:59;10.35;;;4.55;;
75044;SDS011;63614;56.026;35.960;2023-03-14T08:58:25;8.65;;;4.80;;
75044;SDS011;63614;56.026;35.960;2023-03-14T09:00:52;11.38;;;5.15;;
75044;SDS011;63614;56.026;35.960;2023-03-14T09:03:18;9.32;;;4.30;;
75044;SDS011;63614;56.026;35.960;2023-03-14T09:05:44;12.60;;;4.93;;
75044;SDS011;63614;56.026;35.960;2023-03-14T09:08:10;8.45;;;3.80;;
75044;SDS011;63614;56.026;35.960;2023-03-14T09:10:36;10.02;;;3.67;;
75044;SDS011;63614;56.026;35.960;2023-03-14T09:15:29;9.20;;;3.90;;
75044;SDS011;63614;56.026;35.960;2023-03-14T09:17:55;8.27;;;4.47;;
75044;SDS011;63614;56.026;35.960;2023-03-14T09:20:20;10.25;;;4.78;;
75044;SDS011;63614;56.026;35.960;2023-03-14T09:22:46;8.18;;;3.58;;
75044;SDS011;63614;56.026;35.960;2023-03-14T09:25:12;10.50;;;4.45;;
75044;SDS011;63614;56.026;35.960;2023-03-14T09:27:37;10.00;;;4.20;;
75044;SDS011;63614;56.026;35.960;2023-03-14T09:30:03;7.13;;;4.30;;
75044;SDS011;63614;56.026;35.960;2023-03-14T09:32:30;9.45;;;4.78;;
75044;SDS011;63614;56.026;35.960;2023-03-14T09:34:57;7.00;;;3.97;;
75044;SDS011;63614;56.026;35.960;2023-03-14T09:37:23;10.70;;;4.70;;
75044;SDS011;63614;56.026;35.960;2023-03-14T09:39:48;11.15;;;3.97;;
75044;SDS011;63614;56.026;35.960;2023-03-14T09:42:15;8.00;;;4.03;;
75044;SDS011;63614;56.026;35.960;2023-03-14T09:44:52;8.75;;;4.30;;
75044;SDS011;63614;56.026;35.960;2023-03-14T09:47:21;10.25;;;5.10;;
75044;SDS011;63614;56.026;35.960;2023-03-14T09:49:49;14.38;;;4.82;;
75044;SDS011;63614;56.026;35.960;2023-03-14T09:52:20;11.18;;;4.68;;
75044;SDS011;63614;56.026;35.960;2023-03-14T09:54:53;8.13;;;3.95;;
75044;SDS011;63614;56.026;35.960;2023-03-14T09:57:25;10.15;;;4.85;;
75044;SDS011;63614;56.026;35.960;2023-03-14T09:59:53;8.93;;;4.75;;
75044;SDS011;63614;56.026;35.960;2023-03-14T10:02:23;10.25;;;4.65;;
75044;SDS011;63614;56.026;35.960;2023-03-14T10:04:51;10.25;;;4.90;;
75044;SDS011;63614;56.026;35.960;2023-03-14T10:07:28;8.23;;;3.80;;
75044;SDS011;63614;56.026;35.960;2023-03-14T10:09:55;6.68;;;3.67;;
75044;SDS011;63614;56.026;35.960;2023-03-14T10:12:35;13.18;;;4.50;;
75044;SDS011;63614;56.026;35.960;2023-03-14T10:15:06;7.75;;;4.05;;
75044;SDS011;63614;56.026;35.960;2023-03-14T10:17:43;8.23;;;3.97;;
75044;SDS011;63614;56.026;35.960;2023-03-14T10:23:17;10.98;;;4.32;;
75044;SDS011;63614;56.026;35.960;2023-03-14T10:26:05;10.10;;;3.95;;
75044;SDS011;63614;56.026;35.960;2023-03-14T10:28:45;7.90;;;4.50;;
75044;SDS011;63614;56.026;35.960;2023-03-14T10:31:13;8.02;;;4.25;;
75044;SDS011;63614;56.026;35.960;2023-03-14T10:33:40;9.68;;;4.25;;
75044;SDS011;63614;56.026;35.960;2023-03-14T10:38:36;8.45;;;4.28;;
75044;SDS011;63614;56.026;35.960;2023-03-14T10:41:03;10.77;;;4.20;;
75044;SDS011;63614;56.026;35.960;2023-03-14T10:43:59;11.00;;;4.28;;
75044;SDS011;63614;56.026;35.960;2023-03-14T10:46:26;14.43;;;4.50;;
75044;SDS011;63614;56.026;35.960;2023-03-14T10:49:26;10.82;;;4.68;;
75044;SDS011;63614;56.026;35.960;2023-03-14T10:51:53;8.07;;;4.70;;
75044;SDS011;63614;56.026;35.960;2023-03-14T10:54:20;8.95;;;4.22;;
75044;SDS011;63614;56.026;35.960;2023-03-14T10:56:58;6.53;;;4.25;;
75044;SDS011;63614;56.026;35.960;2023-03-14T10:59:27;10.60;;;4.15;;
75044;SDS011;63614;56.026;35.960;2023-03-14T11:07:52;8.48;;;4.00;;
75044;SDS011;63614;56.026;35.960;2023-03-14T11:10:25;9.02;;;4.13;;
75044;SDS011;63614;56.026;35.960;2023-03-14T11:15:29;9.65;;;4.07;;
75044;SDS011;63614;56.026;35.960;2023-03-14T11:29:41;12.43;;;4.38;;
75044;SDS011;63614;56.026;35.960;2023-03-14T11:32:14;9.65;;;3.70;;
75044;SDS011;63614;56.026;35.960;2023-03-14T11:35:02;9.43;;;4.05;;
75044;SDS011;63614;56.026;35.960;2023-03-14T11:37:34;7.13;;;3.97;;
75044;SDS011;63614;56.026;35.960;2023-03-14T11:40:16;7.15;;;3.60;;
75044;SDS011;63614;56.026;35.960;2023-03-14T11:42:46;10.00;;;3.58;;
75044;SDS011;63614;56.026;35.960;2023-03-14T11:45:20;6.50;;;3.67;;
75044;SDS011;63614;56.026;35.960;2023-03-14T11:48:28;12.25;;;4.00;;
75044;SDS011;63614;56.026;35.960;2023-03-14T11:51:17;8.20;;;4.30;;
75044;SDS011;63614;56.026;35.960;2023-03-14T11:54:31;8.82;;;3.90;;
75044;SDS011;63614;56.026;35.960;2023-03-14T11:59:16;7.35;;;3.85;;
75044;SDS011;63614;56.026;35.960;2023-03-14T12:02:05;8.20;;;3.75;;
75044;SDS011;63614;56.026;35.960;2023-03-14T12:04:53;9.98;;;3.92;;
75044;SDS011;63614;56.026;35.960;2023-03-14T12:07:40;5.72;;;3.03;;
75044;SDS011;63614;56.026;35.960;2023-03-14T12:10:09;10.25;;;3.78;;
75044;SDS011;63614;56.026;35.960;2023-03-14T12:12:35;6.72;;;3.60;;
75044;SDS011;63614;56.026;35.960;2023-03-14T12:15:03;18.85;;;4.35;;
75044;SDS011;63614;56.026;35.960;2023-03-14T12:17:35;12.50;;;3.22;;
75044;SDS011;63614;56.026;35.960;2023-03-14T12:20:02;12.48;;;4.13;;
75044;SDS011;63614;56.026;35.960;2023-03-14T12:22:45;5.40;;;2.80;;
75044;SDS011;63614;56.026;35.960;2023-03-14T12:35:36;9.23;;;3.88;;
75044;SDS011;63614;56.026;35.960;2023-03-14T12:38:04;9.90;;;3.90;;
75044;SDS011;63614;56.026;35.960;2023-03-14T12:41:01;9.63;;;3.67;;
75044;SDS011;63614;56.026;35.960;2023-03-14T12:43:38;12.20;;;3.38;;
75044;SDS011;63614;56.026;35.960;2023-03-14T12:51:37;8.35;;;3.45;;
75044;SDS011;63614;56.026;35.960;2023-03-14T12:59:59;8.48;;;4.10;;
75044;SDS011;63614;56.026;35.960;2023-03-14T13:02:41;9.85;;;3.50;;
75044;SDS011;63614;56.026;35.960;2023-03-14T13:15:54;8.68;;;4.00;;
75044;SDS011;63614;56.026;35.960;2023-03-14T13:21:27;7.05;;;3.72;;
75044;SDS011;63614;56.026;35.960;2023-03-14T13:24:00;12.10;;;3.78;;
75044;SDS011;63614;56.026;35.960;2023-03-14T13:26:35;7.18;;;3.65;;
75044;SDS011;63614;56.026;35.960;2023-03-14T13:31:45;10.48;;;3.67;;
75044;SDS011;63614;56.026;35.960;2023-03-14T13:34:13;8.27;;;3.60;;
75044;SDS011;63614;56.026;35.960;2023-03-14T13:36:39;9.25;;;3.75;;
75044;SDS011;63614;56.026;35.960;2023-03-14T13:39:06;9.43;;;3.58;;
75044;SDS011;63614;56.026;35.960;2023-03-14T13:41:38;8.60;;;3.78;;
75044;SDS011;63614;56.026;35.960;2023-03-14T13:44:06;7.82;;;3.70;;
75044;SDS011;63614;56.026;35.960;2023-03-14T13:46:34;10.02;;;4.05;;
75044;SDS011;63614;56.026;35.960;2023-03-14T13:49:02;7.35;;;3.70;;
75044;SDS011;63614;56.026;35.960;2023-03-14T13:51:30;11.02;;;4.00;;
75044;SDS011;63614;56.026;35.960;2023-03-14T13:54:00;10.77;;;4.10;;
75044;SDS011;63614;56.026;35.960;2023-03-14T13:56:29;9.50;;;3.80;;
75044;SDS011;63614;56.026;35.960;2023-03-14T13:58:57;10.45;;;4.50;;
75044;SDS011;63614;56.026;35.960;2023-03-14T14:04:13;7.65;;;3.80;;
75044;SDS011;63614;56.026;35.960;2023-03-14T14:06:44;8.50;;;3.78;;
75044;SDS011;63614;56.026;35.960;2023-03-14T14:09:35;6.95;;;3.67;;
75044;SDS011;63614;56.026;35.960;2023-03-14T14:12:11;10.95;;;4.00;;
75044;SDS011;63614;56.026;35.960;2023-03-14T14:17:21;6.60;;;3.92;;
75044;SDS011;63614;56.026;35.960;2023-03-14T14:19:56;6.55;;;3.65;;
75044;SDS011;63614;56.026;35.960;2023-03-14T14:22:23;7.07;;;3.63;;
75044;SDS011;63614;56.026;35.960;2023-03-14T14:27:50;9.30;;;3.83;;
75044;SDS011;63614;56.026;35.960;2023-03-14T14:32:44;7.15;;;3.75;;
75044;SDS011;63614;56.026;35.960;2023-03-14T14:35:30;6.90;;;3.42;;
75044;SDS011;63614;56.026;35.960;2023-03-14T14:38:01;8.68;;;3.10;;
75044;SDS011;63614;56.026;35.960;2023-03-14T14:40:28;6.95;;;3.28;;
75044;SDS011;63614;56.026;35.960;2023-03-14T14:43:02;5.63;;;3.55;;
75044;SDS011;63614;56.026;35.960;2023-03-14T14:45:30;4.72;;;2.70;;
75044;SDS011;63614;56.026;35.960;2023-03-14T14:50:39;10.88;;;3.20;;
75044;SDS011;63614;56.026;35.960;2023-03-14T14:55:53;9.80;;;4.03;;
75044;SDS011;63614;56.026;35.960;2023-03-14T14:58:25;6.57;;;3.50;;
75044;SDS011;63614;56.026;35.960;2023-03-14T15:01:17;10.77;;;4.00;;
75044;SDS011;63614;56.026;35.960;2023-03-14T15:03:51;6.55;;;3.50;;
75044;SDS011;63614;56.026;35.960;2023-03-14T15:06:19;6.82;;;3.55;;
75044;SDS011;63614;56.026;35.960;2023-03-14T15:08:46;11.20;;;3.80;;
75044;SDS011;63614;56.026;35.960;2023-03-14T15:11:18;5.50;;;3.03;;
75044;SDS011;63614;56.026;35.960;2023-03-14T15:13:48;5.55;;;3.15;;
75044;SDS011;63614;56.026;35.960;2023-03-14T15:16:15;7.43;;;3.47;;
75044;SDS011;63614;56.026;35.960;2023-03-14T15:18:43;5.70;;;3.58;;
75044;SDS011;63614;56.026;35.960;2023-03-14T15:21:10;8.95;;;3.30;;
75044;SDS011;63614;56.026;35.960;2023-03-14T15:23:36;7.85;;;3.83;;
75044;SDS011;63614;56.026;35.960;2023-03-14T15:26:02;6.57;;;2.95;;
75044;SDS011;63614;56.026;35.960;2023-03-14T15:28:28;9.27;;;3.08;;
75044;SDS011;63614;56.026;35.960;2023-03-14T15:30:56;5.27;;;2.77;;
75044;SDS011;63614;56.026;35.960;2023-03-14T15:33:24;5.78;;;3.05;;
75044;SDS011;63614;56.026;35.960;2023-03-14T15:38:18;8.27;;;3.65;;
75044;SDS011;63614;56.026;35.960;2023-03-14T15:40:48;5.38;;;2.90;;
75044;SDS011;63614;56.026;35.960;2023-03-14T15:43:15;7.57;;;2.90;;
75044;SDS011;63614;56.026;35.960;2023-03-14T15:45:42;5.88;;;2.95;;
75044;SDS011;63614;56.026;35.960;2023-03-14T15:48:12;30.48;;;3.40;;
75044;SDS011;63614;56.026;35.960;2023-03-14T15:50:41;8.05;;;3.30;;
75044;SDS011;63614;56.026;35.960;2023-03-14T15:53:07;5.75;;;3.05;;
75044;SDS011;63614;56.026;35.960;2023-03-14T15:55:33;7.25;;;3.20;;
75044;SDS011;63614;56.026;35.960;2023-03-14T15:57:58;7.40;;;2.92;;
75044;SDS011;63614;56.026;35.960;2023-03-14T16:00:25;7.03;;;2.93;;
75044;SDS011;63614;56.026;35.960;2023-03-14T16:02:52;9.07;;;3.10;;
75044;SDS011;63614;56.026;35.960;2023-03-14T16:05:18;7.63;;;2.83;;
75044;SDS011;63614;56.026;35.960;2023-03-14T16:07:46;6.65;;;3.50;;
75044;SDS011;63614;56.026;35.960;2023-03-14T16:10:13;6.68;;;3.58;;
75044;SDS011;63614;56.026;35.960;2023-03-14T16:12:40;5.55;;;3.35;;
75044;SDS011;63614;56.026;35.960;2023-03-14T16:15:08;9.73;;;3.22;;
75044;SDS011;63614;56.026;35.960;2023-03-14T16:17:34;8.40;;;3.55;;
75044;SDS011;63614;56.026;35.960;2023-03-14T16:20:02;8.93;;;3.75;;
75044;SDS011;63614;56.026;35.960;2023-03-14T16:22:29;6.85;;;3.40;;
75044;SDS011;63614;56.026;35.960;2023-03-14T16:25:02;18.75;;;3.58;;
75044;SDS011;63614;56.026;35.960;2023-03-14T16:27:28;5.28;;;3.22;;
75044;SDS011;63614;56.026;35.960;2023-03-14T16:29:56;8.20;;;3.90;;
75044;SDS011;63614;56.026;35.960;2023-03-14T16:34:48;13.35;;;3.60;;
75044;SDS011;63614;56.026;35.960;2023-03-14T16:37:14;6.47;;;3.65;;